createdAt,value
2023-11-22T00:00:01.693Z,102728.38
2023-11-22T00:02:30.496Z,102733.75
2023-11-22T00:04:59.178Z,102740.91
2023-11-22T00:07:30.137Z,102741.78
2023-11-22T00:09:58.125Z,102758.22
2023-11-22T00:12:26.635Z,102753.00
2023-11-22T00:14:55.802Z,102751.25
2023-11-22T00:17:24.424Z,102751.31
2023-11-22T00:19:52.607Z,102752.19
2023-11-22T00:22:20.753Z,102753.91
2023-11-22T00:24:51.464Z,102759.28
2023-11-22T00:27:19.292Z,102764.69
2023-11-22T00:29:47.563Z,102760.22
2023-11-22T00:32:16.769Z,102762.09
2023-11-22T00:34:44.599Z,102755.84
2023-11-22T00:37:12.410Z,102758.56
2023-11-22T00:39:40.164Z,102766.84
2023-11-22T00:42:08.184Z,102765.19
2023-11-22T00:44:37.276Z,102764.56
2023-11-22T00:47:06.235Z,102777.38
2023-11-22T00:49:35.468Z,102776.53
2023-11-22T00:52:04.383Z,102760.47
2023-11-22T00:54:35.452Z,102765.94
2023-11-22T00:57:03.494Z,102768.53
2023-11-22T00:59:34.241Z,102765.00
2023-11-22T01:02:03.478Z,102771.31
2023-11-22T01:04:36.276Z,102779.41
2023-11-22T01:07:06.450Z,102783.97
2023-11-22T01:09:34.896Z,102795.59
2023-11-22T01:12:02.808Z,102799.34
2023-11-22T01:14:30.868Z,102794.06
2023-11-22T01:16:59.012Z,102804.03
2023-11-22T01:19:27.392Z,102806.72
2023-11-22T01:21:55.369Z,102816.63
2023-11-22T01:24:24.573Z,102822.84
2023-11-22T01:26:52.356Z,102828.22
2023-11-22T01:29:20.181Z,102828.22
2023-11-22T01:31:48.790Z,102816.63
2023-11-22T01:34:16.587Z,102784.38
2023-11-22T01:36:45.627Z,102825.84
2023-11-22T01:39:14.734Z,102814.25
2023-11-22T01:41:46.603Z,102806.19
2023-11-22T01:44:14.720Z,102818.91
2023-11-22T01:46:43.670Z,102815.38
2023-11-22T01:49:12.623Z,102805.59
2023-11-22T01:51:41.647Z,102792.31
2023-11-22T01:54:11.631Z,102820.63
2023-11-22T01:56:40.702Z,102820.59
2023-11-22T01:59:09.872Z,102823.31
2023-11-22T02:01:38.403Z,102824.16
2023-11-22T02:04:07.760Z,102823.44
2023-11-22T02:06:36.801Z,102826.94
2023-11-22T02:09:04.993Z,102813.66
2023-11-22T02:11:32.783Z,102826.16
2023-11-22T02:14:00.604Z,102819.06
2023-11-22T02:16:29.971Z,102826.22
2023-11-22T02:18:57.927Z,102828.97
2023-11-22T02:21:25.709Z,102837.88
2023-11-22T02:23:54.886Z,102843.03
2023-11-22T02:26:22.671Z,102831.28
2023-11-22T02:28:50.619Z,102824.91
2023-11-22T02:31:18.582Z,102824.09
2023-11-22T02:33:46.460Z,102824.78
2023-11-22T02:36:14.490Z,102817.50
2023-11-22T02:38:43.158Z,102815.72
2023-11-22T02:41:12.447Z,102819.25
2023-11-22T02:43:40.881Z,102822.94
2023-11-22T02:46:09.150Z,102825.63
2023-11-22T02:48:38.641Z,102819.41
2023-11-22T02:51:07.745Z,102823.06
2023-11-22T02:53:35.579Z,102824.03
2023-11-22T02:56:03.451Z,102818.81
2023-11-22T02:58:32.710Z,102818.84
2023-11-22T03:01:00.560Z,102825.19
2023-11-22T03:03:28.570Z,102816.22
2023-11-22T03:05:56.729Z,102821.66
2023-11-22T03:08:24.686Z,102813.66
2023-11-22T03:10:52.548Z,102820.88
2023-11-22T03:13:20.736Z,102820.06
2023-11-22T03:15:49.885Z,102831.72
2023-11-22T03:18:19.119Z,102835.38
2023-11-22T03:20:47.983Z,102833.72
2023-11-22T03:23:18.186Z,102840.78
2023-11-22T03:25:46.121Z,102842.75
2023-11-22T03:28:13.923Z,102844.59
2023-11-22T03:30:41.755Z,102851.81
2023-11-22T03:33:11.010Z,102861.69
2023-11-22T03:35:38.919Z,102860.94
2023-11-22T03:38:06.725Z,102864.47
2023-11-22T03:40:34.660Z,102879.69
2023-11-22T03:43:02.486Z,102886.91
2023-11-22T03:45:30.296Z,102896.84
2023-11-22T03:47:58.269Z,102889.66
2023-11-22T03:50:27.500Z,102900.41
2023-11-22T03:52:55.255Z,102912.00
2023-11-22T03:55:24.066Z,102911.16
2023-11-22T03:57:51.847Z,102917.38
2023-11-22T04:00:21.458Z,102911.22
2023-11-22T04:02:49.359Z,102912.91
2023-11-22T04:05:17.731Z,102924.47
2023-11-22T04:07:46.857Z,102924.47
2023-11-22T04:10:14.694Z,102906.69
2023-11-22T04:12:42.459Z,102920.88
2023-11-22T04:15:11.507Z,102921.78
2023-11-22T04:17:40.190Z,102926.25
2023-11-22T04:20:11.976Z,102931.53
2023-11-22T04:22:40.039Z,102931.59
2023-11-22T04:25:10.647Z,102931.53
2023-11-22T04:27:38.460Z,102933.31
2023-11-22T04:30:09.827Z,102929.78
2023-11-22T04:32:38.429Z,102937.78
2023-11-22T04:35:07.339Z,102944.06
2023-11-22T04:37:36.477Z,102945.19
2023-11-22T04:40:08.666Z,102938.03
2023-11-22T04:42:38.438Z,102962.97
2023-11-22T04:45:07.432Z,102957.66
2023-11-22T04:47:35.580Z,102947.81
2023-11-22T04:50:03.903Z,102947.75
2023-11-22T04:52:33.257Z,102943.22
2023-11-22T04:55:01.189Z,102947.69
2023-11-22T04:57:29.384Z,102932.41
2023-11-22T04:59:58.629Z,102928.78
2023-11-22T05:02:28.067Z,102927.88
2023-11-22T05:04:55.896Z,102931.44
2023-11-22T05:07:23.666Z,102938.56
2023-11-22T05:09:51.480Z,102937.59
2023-11-22T05:12:19.403Z,102937.59
2023-11-22T05:14:47.216Z,102931.34
2023-11-22T05:17:16.665Z,102931.34
2023-11-22T05:19:44.472Z,102937.59
2023-11-22T05:22:12.229Z,102942.88
2023-11-22T05:24:42.371Z,102933.06
2023-11-22T05:27:10.504Z,102933.13
2023-11-22T05:29:43.501Z,102935.75
2023-11-22T05:32:19.603Z,102927.72
2023-11-22T05:34:47.449Z,102926.75
2023-11-22T05:37:15.248Z,102934.81
2023-11-22T05:39:43.103Z,102933.00
2023-11-22T05:42:10.881Z,102925.84
2023-11-22T05:44:38.800Z,102917.84
2023-11-22T05:47:08.774Z,102913.44
2023-11-22T05:49:38.064Z,102918.75
2023-11-22T05:52:06.784Z,102916.88
2023-11-22T05:54:34.704Z,102927.59
2023-11-22T05:57:02.546Z,102926.59
2023-11-22T05:59:32.987Z,102920.41
2023-11-22T06:02:00.826Z,102936.53
2023-11-22T06:04:28.656Z,102932.91
2023-11-22T06:06:57.914Z,102936.47
2023-11-22T06:09:25.715Z,102943.66
2023-11-22T06:11:55.636Z,102952.59
2023-11-22T06:14:23.511Z,102948.22
2023-11-22T06:16:51.320Z,102967.97
2023-11-22T06:19:19.182Z,102980.53
2023-11-22T06:21:47.428Z,102990.31
2023-11-22T06:24:17.746Z,102991.16
2023-11-22T06:26:47.465Z,103002.72
2023-11-22T06:29:15.778Z,102993.72
2023-11-22T06:31:44.411Z,102993.72
2023-11-22T06:34:12.516Z,102985.59
2023-11-22T06:36:40.364Z,102979.38
2023-11-22T06:39:10.217Z,102968.81
2023-11-22T06:41:39.441Z,102962.56
2023-11-22T06:44:07.743Z,102951.88
2023-11-22T06:46:35.651Z,102956.47
2023-11-22T06:49:03.608Z,102957.50
2023-11-22T06:51:31.501Z,102941.41
2023-11-22T06:54:00.548Z,102942.28
2023-11-22T06:56:29.704Z,102941.41
2023-11-22T06:58:59.002Z,102937.91
2023-11-22T07:01:27.608Z,102936.91
2023-11-22T07:03:55.782Z,102944.16
2023-11-22T07:06:24.515Z,102944.28
2023-11-22T07:08:52.401Z,102955.88
2023-11-22T07:11:27.324Z,102972.88
2023-11-22T07:13:55.943Z,102979.16
2023-11-22T07:16:26.297Z,102985.31
2023-11-22T07:18:55.081Z,102985.31
2023-11-22T07:21:23.042Z,102994.31
2023-11-22T07:23:53.510Z,102997.91
2023-11-22T07:26:21.987Z,102988.94
2023-11-22T07:28:49.913Z,102980.00
2023-11-22T07:31:18.256Z,102988.88
2023-11-22T07:33:48.307Z,102989.66
2023-11-22T07:36:16.875Z,102985.13
2023-11-22T07:38:45.052Z,102977.97
2023-11-22T07:41:12.921Z,102986.91
2023-11-22T07:43:40.921Z,102989.59
2023-11-22T07:46:14.106Z,102994.03
2023-11-22T07:48:50.917Z,102993.09
2023-11-22T07:51:19.261Z,102998.44
2023-11-22T07:53:47.182Z,103008.22
2023-11-22T07:56:16.529Z,103004.59
2023-11-22T07:58:45.299Z,103006.34
2023-11-22T08:01:15.269Z,103017.94
2023-11-22T08:03:47.403Z,103026.00
2023-11-22T08:06:18.289Z,103029.59
2023-11-22T08:08:48.854Z,103042.06
2023-11-22T08:11:17.091Z,103036.69
2023-11-22T08:13:46.191Z,103034.00
2023-11-22T08:16:15.314Z,103042.94
2023-11-22T08:18:46.789Z,103033.94
2023-11-22T08:21:14.866Z,103029.41
2023-11-22T08:23:44.198Z,103030.22
2023-11-22T08:26:13.190Z,103039.06
2023-11-22T08:28:41.513Z,103046.22
2023-11-22T08:31:10.785Z,103059.53
2023-11-22T08:33:41.546Z,103062.13
2023-11-22T08:36:10.992Z,103055.72
2023-11-22T08:38:41.878Z,103058.28
2023-11-22T08:41:14.365Z,103059.94
2023-11-22T08:43:42.761Z,103051.75
2023-11-22T08:46:14.425Z,103053.44
2023-11-22T08:48:44.047Z,103051.47
2023-11-22T08:51:12.830Z,103046.88
2023-11-22T08:53:45.513Z,103037.75
2023-11-22T08:56:17.055Z,103035.03
2023-11-22T08:58:45.512Z,103028.66
2023-11-22T09:01:15.855Z,103030.38
2023-11-22T09:03:44.779Z,103022.22
2023-11-22T09:06:12.750Z,103028.41
2023-11-22T09:08:40.619Z,103023.00
2023-11-22T09:11:08.940Z,103022.16
2023-11-22T09:13:38.319Z,103022.09
2023-11-22T09:16:07.403Z,103026.56
2023-11-22T09:18:35.586Z,103032.72
2023-11-22T09:21:07.317Z,103038.13
2023-11-22T09:23:35.182Z,103038.97
2023-11-22T09:26:03.159Z,103039.78
2023-11-22T09:28:33.586Z,103051.28
2023-11-22T09:31:19.111Z,103054.75
2023-11-22T09:33:50.036Z,103056.38
2023-11-22T09:36:19.297Z,103054.47
2023-11-22T09:38:48.342Z,103047.19
2023-11-22T09:41:19.286Z,103048.84
2023-11-22T09:43:50.755Z,103045.19
2023-11-22T09:46:21.682Z,103045.00
2023-11-22T09:48:51.910Z,103041.28
2023-11-22T09:51:25.424Z,103034.88
2023-11-22T09:54:00.060Z,103035.72
2023-11-22T09:56:29.576Z,103034.69
2023-11-22T09:59:02.151Z,103033.69
2023-11-22T10:01:34.726Z,103028.22
2023-11-22T10:04:03.853Z,103029.13
2023-11-22T10:06:35.586Z,103030.91
2023-11-22T10:09:07.223Z,103029.06
2023-11-22T10:11:37.266Z,103026.28
2023-11-22T10:14:10.962Z,103030.59
2023-11-22T10:16:40.182Z,103019.53
2023-11-22T10:19:15.087Z,103008.53
2023-11-22T10:21:43.036Z,103002.03
2023-11-22T10:24:17.832Z,103007.25
2023-11-22T10:26:46.374Z,103004.31
2023-11-22T10:29:15.399Z,103009.47
2023-11-22T10:31:44.846Z,103003.84
2023-11-22T10:34:13.623Z,102987.59
2023-11-22T10:36:41.511Z,102994.63
2023-11-22T10:39:11.128Z,102991.88
2023-11-22T10:41:40.535Z,102992.75
2023-11-22T10:44:09.149Z,102987.25
2023-11-22T10:46:37.130Z,102987.38
2023-11-22T10:49:08.030Z,102986.44
2023-11-22T10:51:41.927Z,102983.56
2023-11-22T10:54:10.389Z,102976.22
2023-11-22T10:56:42.338Z,102974.22
2023-11-22T10:59:14.933Z,102966.81
2023-11-22T11:01:50.442Z,102962.06
2023-11-22T11:04:26.022Z,102963.59
2023-11-22T11:06:59.968Z,102954.44
2023-11-22T11:09:33.912Z,102956.78
2023-11-22T11:12:07.818Z,102957.38
2023-11-22T11:14:54.548Z,102952.38
2023-11-22T11:17:25.562Z,102950.50
2023-11-22T11:19:54.818Z,102960.41
2023-11-22T11:22:23.750Z,102952.28
2023-11-22T11:25:04.062Z,102939.44
2023-11-22T11:27:42.695Z,102929.50
2023-11-22T11:30:47.216Z,102920.53
2023-11-22T11:33:18.388Z,102909.66
2023-11-22T11:35:50.049Z,102897.84
2023-11-22T11:38:22.029Z,102889.75
2023-11-22T11:40:53.832Z,102901.38
2023-11-22T11:43:25.096Z,102910.22
2023-11-22T11:45:55.203Z,102904.63
2023-11-22T11:48:23.177Z,102899.06
2023-11-22T11:50:54.854Z,102899.81
2023-11-22T11:53:24.778Z,102914.13
2023-11-22T11:55:55.560Z,102903.16
2023-11-22T11:58:24.451Z,102906.78
2023-11-22T12:00:53.733Z,102898.50
2023-11-22T12:03:22.968Z,102908.19
2023-11-22T12:05:52.334Z,102891.88
2023-11-22T12:08:21.249Z,102887.16
2023-11-22T12:10:50.677Z,102884.53
2023-11-22T12:13:20.331Z,102877.34
2023-11-22T12:15:49.026Z,102871.91
2023-11-22T12:18:20.791Z,102869.13
2023-11-22T12:20:59.201Z,102885.19
2023-11-22T12:23:28.727Z,102885.06
2023-11-22T12:25:57.859Z,102883.38
2023-11-22T12:28:28.214Z,102876.22
2023-11-22T12:30:56.278Z,102856.06
2023-11-22T12:33:24.291Z,102858.69
2023-11-22T12:35:52.274Z,102847.66
2023-11-22T12:38:22.127Z,102859.13
2023-11-22T12:40:50.015Z,102859.88
2023-11-22T12:43:17.884Z,102866.13
2023-11-22T12:45:46.868Z,102862.50
2023-11-22T12:48:26.232Z,102849.50
2023-11-22T12:50:55.669Z,102844.59
2023-11-22T12:53:27.064Z,102824.44
2023-11-22T12:55:57.925Z,102816.97
2023-11-22T12:58:29.183Z,102828.88
2023-11-22T13:01:04.338Z,102825.75
2023-11-22T13:03:33.227Z,102823.31
2023-11-22T13:06:03.503Z,102827.03
2023-11-22T13:08:34.232Z,102829.09
2023-11-22T13:11:02.628Z,102823.19
2023-11-22T13:13:31.857Z,102814.28
2023-11-22T13:16:01.377Z,102817.78
2023-11-22T13:18:29.824Z,102809.81
2023-11-22T13:21:00.792Z,102800.13
2023-11-22T13:23:32.339Z,102806.31
2023-11-22T13:26:06.872Z,102799.00
2023-11-22T13:28:37.232Z,102800.91
2023-11-22T13:31:10.788Z,102797.34
2023-11-22T13:33:44.693Z,102799.13
2023-11-22T13:36:14.937Z,102804.78
2023-11-22T13:38:42.801Z,102806.53
2023-11-22T13:41:12.306Z,102800.41
2023-11-22T13:43:42.106Z,102793.38
2023-11-22T13:46:11.572Z,102804.28
2023-11-22T13:48:40.747Z,102803.63
2023-11-22T13:51:11.579Z,102800.09
2023-11-22T13:53:44.548Z,102797.47
2023-11-22T13:56:15.180Z,102800.38
2023-11-22T13:58:44.111Z,102799.66
2023-11-22T14:01:17.597Z,102796.28
2023-11-22T14:03:45.671Z,102787.38
2023-11-22T14:06:15.514Z,102776.72
2023-11-22T14:08:43.382Z,102782.25
2023-11-22T14:11:15.756Z,102776.03
2023-11-22T14:13:43.821Z,102767.19
2023-11-22T14:16:12.037Z,102761.88
2023-11-22T14:18:39.911Z,102759.31
2023-11-22T14:21:08.260Z,102755.66
2023-11-22T14:23:36.332Z,102756.53
2023-11-22T14:26:07.905Z,102751.28
2023-11-22T14:28:40.043Z,102754.94
2023-11-22T14:31:11.387Z,102751.56
2023-11-22T14:33:42.012Z,102747.91
2023-11-22T14:36:10.391Z,102739.97
2023-11-22T14:38:38.306Z,102736.44
2023-11-22T14:41:11.175Z,102736.66
2023-11-22T14:43:43.188Z,102743.00
2023-11-22T14:46:10.992Z,102737.75
2023-11-22T14:48:39.039Z,102732.44
2023-11-22T14:51:10.224Z,102738.81
2023-11-22T14:53:39.903Z,102739.84
2023-11-22T14:56:08.867Z,102746.19
2023-11-22T14:58:36.940Z,102751.94
2023-11-22T15:01:09.687Z,102757.31
2023-11-22T15:03:37.748Z,102771.84
2023-11-22T15:06:06.313Z,102773.72
2023-11-22T15:08:34.890Z,102772.78
2023-11-22T15:11:02.802Z,102775.41
2023-11-22T15:13:31.031Z,102788.09
2023-11-22T15:15:58.904Z,102799.03
2023-11-22T15:18:31.923Z,102798.00
2023-11-22T15:20:59.910Z,102790.06
2023-11-22T15:23:27.980Z,102776.50
2023-11-22T15:25:58.843Z,102754.91
2023-11-22T15:28:26.789Z,102744.25
2023-11-22T15:30:59.228Z,102739.16
2023-11-22T15:33:28.427Z,102748.25
2023-11-22T15:35:57.761Z,102738.41
2023-11-22T15:38:26.621Z,102735.78
2023-11-22T15:40:59.803Z,102722.50
2023-11-22T15:43:32.385Z,102728.09
2023-11-22T15:46:00.333Z,102717.63
2023-11-22T15:48:28.987Z,102708.59
2023-11-22T15:51:00.276Z,102691.47
2023-11-22T15:53:28.129Z,102685.19
2023-11-22T15:55:55.992Z,102696.06
2023-11-22T15:58:23.806Z,102715.88
2023-11-22T16:00:53.909Z,102715.00
2023-11-22T16:03:23.273Z,102730.25
2023-11-22T16:05:53.409Z,102734.75
2023-11-22T16:08:22.872Z,102713.34
2023-11-22T16:10:50.789Z,102693.50
2023-11-22T16:13:18.785Z,102684.69
2023-11-22T16:15:47.758Z,102702.81
2023-11-22T16:18:18.515Z,102701.91
2023-11-22T16:20:46.491Z,102679.56
2023-11-22T16:23:17.461Z,102669.69
2023-11-22T16:25:46.877Z,102667.94
2023-11-22T16:28:14.770Z,102653.66
2023-11-22T16:30:42.629Z,102662.63
2023-11-22T16:33:10.691Z,102654.47
2023-11-22T16:35:38.538Z,102655.59
2023-11-22T16:38:06.441Z,102669.06
2023-11-22T16:40:34.425Z,102655.59
2023-11-22T16:43:08.225Z,102657.22
2023-11-22T16:45:35.873Z,102640.13
2023-11-22T16:48:03.763Z,102646.28
2023-11-22T16:50:31.645Z,102637.41
2023-11-22T16:52:59.430Z,102643.75
2023-11-22T16:55:27.262Z,102646.28
2023-11-22T16:57:59.083Z,102635.44
2023-11-22T17:00:30.227Z,102642.53
2023-11-22T17:03:00.869Z,102647.13
2023-11-22T17:05:29.302Z,102653.34
2023-11-22T17:08:00.117Z,102656.81
2023-11-22T17:10:45.275Z,102655.94
2023-11-22T17:13:15.441Z,102645.00
2023-11-22T17:15:45.989Z,102656.63
2023-11-22T17:18:14.843Z,102657.44
2023-11-22T17:20:44.251Z,102646.56
2023-11-22T17:23:12.547Z,102646.50
2023-11-22T17:25:40.587Z,102641.09
2023-11-22T17:28:08.637Z,102643.66
2023-11-22T17:30:36.459Z,102626.56
2023-11-22T17:33:05.806Z,102621.16
2023-11-22T17:35:34.732Z,102639.06
2023-11-22T17:38:03.361Z,102629.16
2023-11-22T17:40:32.641Z,102630.84
2023-11-22T17:43:03.343Z,102633.47
2023-11-22T17:45:31.238Z,102624.44
2023-11-22T17:47:59.497Z,102624.34
2023-11-22T17:50:29.172Z,102630.72
2023-11-22T17:52:58.565Z,102625.16
2023-11-22T17:55:26.591Z,102631.38
2023-11-22T17:57:54.491Z,102631.44
2023-11-22T18:00:23.114Z,102636.69
2023-11-22T18:02:51.150Z,102632.13
2023-11-22T18:05:21.925Z,102622.19
2023-11-22T18:07:51.995Z,102628.31
2023-11-22T18:10:19.963Z,102626.56
2023-11-22T18:12:47.893Z,102617.44
2023-11-22T18:15:15.753Z,102611.16
2023-11-22T18:17:43.874Z,102619.16
2023-11-22T18:20:12.886Z,102612.13
2023-11-22T18:22:41.111Z,102604.13
2023-11-22T18:25:12.728Z,102590.75
2023-11-22T18:27:43.705Z,102578.94
2023-11-22T18:30:12.690Z,102581.63
2023-11-22T18:32:40.642Z,102583.38
2023-11-22T18:35:09.188Z,102567.13
2023-11-22T18:37:37.171Z,102575.19
2023-11-22T18:40:09.042Z,102574.25
2023-11-22T18:42:38.323Z,102573.41
2023-11-22T18:45:07.246Z,102567.09
2023-11-22T18:47:36.610Z,102566.19
2023-11-22T18:50:06.506Z,102561.63
2023-11-22T18:52:34.435Z,102567.88
2023-11-22T18:55:02.244Z,102582.28
2023-11-22T18:57:30.441Z,102586.66
2023-11-22T18:59:59.730Z,102579.38
2023-11-22T19:02:27.762Z,102585.41
2023-11-22T19:04:55.949Z,102571.84
2023-11-22T19:07:24.543Z,102570.91
2023-11-22T19:09:52.450Z,102553.69
2023-11-22T19:12:20.416Z,102558.94
2023-11-22T19:14:48.318Z,102557.03
2023-11-22T19:17:17.966Z,102550.59
2023-11-22T19:19:45.780Z,102545.19
2023-11-22T19:22:13.591Z,102538.78
2023-11-22T19:24:42.910Z,102535.94
2023-11-22T19:27:10.917Z,102533.97
2023-11-22T19:29:39.511Z,102533.75
2023-11-22T19:32:23.226Z,102524.63
2023-11-22T19:34:58.966Z,102514.63
2023-11-22T19:37:29.226Z,102511.97
2023-11-22T19:40:15.196Z,102524.31
2023-11-22T19:42:43.048Z,102512.63
2023-11-22T19:45:13.339Z,102518.69
2023-11-22T19:47:46.414Z,102517.75
2023-11-22T19:50:43.702Z,102510.59
2023-11-22T19:53:12.878Z,102509.47
2023-11-22T19:55:44.935Z,102505.66
2023-11-22T19:58:21.063Z,102508.22
2023-11-22T20:00:49.146Z,102501.13
2023-11-22T20:03:39.387Z,102501.94
2023-11-22T20:06:23.675Z,102488.50
2023-11-22T20:09:05.724Z,102485.47
2023-11-22T20:11:52.946Z,102499.69
2023-11-22T20:14:30.245Z,102504.88
2023-11-22T20:17:10.205Z,102505.03
2023-11-22T20:19:41.870Z,102493.53
2023-11-22T20:22:27.169Z,102482.63
2023-11-22T20:25:38.460Z,102493.75
2023-11-22T20:28:06.408Z,102478.66
2023-11-22T20:30:34.288Z,102489.16
2023-11-22T20:33:02.445Z,102483.75
2023-11-22T20:35:42.781Z,102487.41
2023-11-22T20:38:13.595Z,102473.97
2023-11-22T20:40:41.477Z,102482.00
2023-11-22T20:43:09.645Z,102477.41
2023-11-22T20:45:37.509Z,102480.88
2023-11-22T20:48:08.814Z,102481.81
2023-11-22T20:50:41.127Z,102483.56
2023-11-22T20:53:09.029Z,102477.13
2023-11-22T20:55:38.233Z,102490.63
2023-11-22T20:58:06.357Z,102481.53
2023-11-22T21:00:34.249Z,102477.06
2023-11-22T21:03:02.414Z,102476.13
2023-11-22T21:05:30.972Z,102468.00
2023-11-22T21:07:59.068Z,102471.66
2023-11-22T21:10:26.906Z,102473.16
2023-11-22T21:12:56.096Z,102471.41
2023-11-22T21:15:24.110Z,102466.78
2023-11-22T21:17:52.189Z,102470.41
2023-11-22T21:20:23.374Z,102468.47
2023-11-22T21:22:51.192Z,102463.94
2023-11-22T21:25:19.456Z,102469.34
2023-11-22T21:27:47.303Z,102462.91
2023-11-22T21:30:16.564Z,102454.81
2023-11-22T21:32:46.438Z,102455.75
2023-11-22T21:35:14.797Z,102446.78
2023-11-22T21:37:42.651Z,102443.91
2023-11-22T21:40:13.843Z,102442.94
2023-11-22T21:42:42.032Z,102435.69
2023-11-22T21:45:12.535Z,102441.09
2023-11-22T21:47:42.300Z,102434.59
2023-11-22T21:50:13.712Z,102433.78
2023-11-22T21:52:41.655Z,102427.44
2023-11-22T21:55:10.458Z,102425.50
2023-11-22T21:57:38.344Z,102414.63
2023-11-22T22:00:06.992Z,102411.13
2023-11-22T22:02:35.030Z,102419.00
2023-11-22T22:05:04.681Z,102412.53
2023-11-22T22:07:32.746Z,102410.78
2023-11-22T22:10:00.631Z,102407.03
2023-11-22T22:12:28.712Z,102401.63
2023-11-22T22:14:56.545Z,102402.25
2023-11-22T22:17:24.549Z,102400.53
2023-11-22T22:19:52.445Z,102404.97
2023-11-22T22:22:22.274Z,102396.69
2023-11-22T22:24:50.343Z,102394.69
2023-11-22T22:27:18.249Z,102389.28
2023-11-22T22:29:46.196Z,102382.03
2023-11-22T22:32:14.083Z,102382.03
2023-11-22T22:34:41.880Z,102384.69
2023-11-22T22:37:09.730Z,102381.88
2023-11-22T22:39:39.012Z,102386.25
2023-11-22T22:42:06.848Z,102395.22
2023-11-22T22:44:36.874Z,102386.03
2023-11-22T22:47:05.205Z,102394.88
2023-11-22T22:49:33.489Z,102393.91
2023-11-22T22:52:10.128Z,102394.72
2023-11-22T22:54:41.917Z,102390.16
2023-11-22T22:57:09.842Z,102390.94
2023-11-22T22:59:38.180Z,102389.03
2023-11-22T23:02:06.687Z,102389.81
2023-11-22T23:04:34.947Z,102390.69
2023-11-22T23:07:03.254Z,102390.59
2023-11-22T23:09:31.092Z,102385.03
2023-11-22T23:12:01.047Z,102386.69
2023-11-22T23:14:30.243Z,102389.19
2023-11-22T23:16:58.213Z,102387.28
2023-11-22T23:19:27.180Z,102380.94
2023-11-22T23:21:55.043Z,102381.69
2023-11-22T23:24:22.933Z,102385.09
2023-11-22T23:26:50.863Z,102388.69
2023-11-22T23:29:20.400Z,102385.03
2023-11-22T23:31:48.419Z,102384.84
2023-11-22T23:34:16.322Z,102386.59
2023-11-22T23:36:44.177Z,102373.91
2023-11-22T23:39:13.736Z,102387.38
2023-11-22T23:41:46.192Z,102372.81
2023-11-22T23:44:14.438Z,102368.34
2023-11-22T23:46:44.142Z,102362.84
2023-11-22T23:49:13.117Z,102365.53
2023-11-22T23:51:40.990Z,102362.75
2023-11-22T23:54:10.714Z,102367.19
2023-11-22T23:56:38.742Z,102356.38
2023-11-22T23:59:09.255Z,102347.38
